KMCB/MCB METAR and TAF weather

Enter ICAO airport designator
Station Type Date Time Source
KMCB METAR 2019/12/13 16:53 UTC NOAA

KMCB 131653Z AUTO 00000KT 6SM BR OVC003 12/11 A2997 RMK AO2 SLP147 T01170106


Station Type Date Time Source
KMCB Decoded METAR 2019/12/13 16:53 UTC NOAA

MCCOMB/PIKE COUNTY AIRPORT, MS, United States (KMCB) 31-11N 90-28W 124M
Dec 13, 2019 - 11:53 AM EST / 2019.12.13 1653 UTC
Wind: Calm:0
Visibility: 6 mile(s):0
Sky conditions: overcast
Weather: mist
Temperature: 53.1 F (11.7 C)
Dew Point: 51.1 F (10.6 C)
Relative Humidity: 92%
Pressure (altimeter): 29.97 in. Hg (1014 hPa)
ob: KMCB 131653Z AUTO 00000KT 6SM BR OVC003 12/11 A2997 RMK AO2 SLP147 T01170106
cycle: 17

Station Type Date Time Source
KMCB TAF 2019/12/13 16:12 UTC NOAA

TAF
AMD KMCB 131610Z 1316/1412 00000KT 2SM BR OVC002
FM131700 VRB03KT 4SM BR OVC003
FM131800 VRB03KT P6SM BKN013 OVC020
FM131900 VRB03KT P6SM BKN030 OVC060
FM140600 00000KT 3SM BR OVC008
FM141000 VRB03KT 1/2SM FG OVC003

Example: see airport list